Time;durP1;ratioP1;P1;durP2;ratioP2;P2;SDS_P1;SDS_P2;PMS_P1;PMS_P2;Temp;Humidity;BMP_temperature;BMP_pressure;BME280_temperature;BME280_humidity;BME280_pressure;Samples;Min_cycle;Max_cycle;Signal;HPM_P1;HPM_P2
2022/02/12 00:00:42;;;;;;;9.60;4.18;;;;;;;5.97;52.74;99908.31;5094281;28;20028;-47
2022/02/12 00:03:08;;;;;;;6.88;4.00;;;;;;;5.97;52.79;99904.91;5092700;28;20028;-48
2022/02/12 00:05:34;;;;;;;22.25;7.63;;;;;;;5.92;53.15;99910.53;5092627;28;20024;-49
2022/02/12 00:08:00;;;;;;;12.20;3.92;;;;;;;5.93;53.22;99903.53;5093855;28;20119;-48
2022/02/12 00:10:29;;;;;;;12.10;4.45;;;;;;;6.04;53.17;99907.78;5092599;28;20405;-47
2022/02/12 00:12:55;;;;;;;12.82;3.60;;;;;;;6.07;52.78;99902.28;5092397;28;20024;-48
2022/02/12 00:15:21;;;;;;;9.63;3.65;;;;;;;6.03;52.50;99898.31;5093731;28;20077;-47
2022/02/12 00:17:48;;;;;;;11.15;4.03;;;;;;;5.99;52.83;99909.00;5093721;28;20405;-47
2022/02/12 00:20:15;;;;;;;9.45;3.83;;;;;;;6.02;52.88;99902.72;5093645;28;20020;-49
2022/02/12 00:22:41;;;;;;;9.00;3.28;;;;;;;5.91;52.43;99897.63;5093661;28;20070;-49
2022/02/12 00:25:08;;;;;;;8.10;3.58;;;;;;;5.83;52.85;99897.50;5093545;28;20095;-48
2022/02/12 00:27:34;;;;;;;7.28;4.85;;;;;;;5.74;53.11;99894.78;5093540;28;20079;-48
2022/02/12 00:30:00;;;;;;;12.23;8.20;;;;;;;5.66;52.68;99891.22;5093436;28;20454;-48
2022/02/12 00:32:25;;;;;;;15.43;7.32;;;;;;;5.48;52.94;99891.09;5093291;28;20389;-49
2022/02/12 00:34:51;;;;;;;11.10;4.65;;;;;;;5.20;53.26;99891.78;5091812;28;20503;-47
2022/02/12 00:37:17;;;;;;;10.52;4.50;;;;;;;5.04;54.11;99893.28;5093273;28;20032;-48
2022/02/12 00:39:43;;;;;;;8.30;4.30;;;;;;;5.11;54.41;99891.75;5093295;28;20016;-48
2022/02/12 00:42:09;;;;;;;7.07;3.53;;;;;;;5.18;54.04;99887.66;5093210;28;20047;-47
2022/02/12 00:44:35;;;;;;;10.82;4.32;;;;;;;5.21;54.12;99889.97;5093206;28;20505;-47
2022/02/12 00:47:00;;;;;;;7.57;5.45;;;;;;;5.03;54.10;99889.84;5091759;28;20035;-47
2022/02/12 00:49:26;;;;;;;10.25;6.13;;;;;;;4.53;54.49;99890.69;5093108;28;20027;-47
2022/02/12 00:51:52;;;;;;;11.65;5.28;;;;;;;4.21;55.24;99890.81;5093087;28;20080;-49
2022/02/12 00:54:19;;;;;;;7.35;3.47;;;;;;;3.94;55.67;99899.13;5092859;28;20031;-49
2022/02/12 00:56:45;;;;;;;9.65;3.75;;;;;;;3.90;56.23;99884.75;5092903;28;20379;-49
2022/02/12 00:59:11;;;;;;;8.75;3.47;;;;;;;4.13;56.88;99885.44;5092923;28;20020;-49
2022/02/12 01:01:37;;;;;;;10.95;5.50;;;;;;;4.45;56.46;99880.13;5093157;28;20543;-47
2022/02/12 01:04:04;;;;;;;7.38;3.72;;;;;;;4.79;56.28;99877.22;5091115;28;20031;-47
2022/02/12 01:06:31;;;;;;;11.00;4.53;;;;;;;5.10;55.49;99874.50;5091479;28;20020;-48
2022/02/12 01:08:57;;;;;;;9.70;4.40;;;;;;;5.16;54.96;99874.78;5092691;28;20016;-49
2022/02/12 01:11:23;;;;;;;9.00;3.78;;;;;;;5.10;54.79;99874.50;5091336;28;20024;-49
2022/02/12 01:13:49;;;;;;;12.15;3.75;;;;;;;5.04;54.83;99875.06;5091285;28;20379;-49
2022/02/12 01:16:14;;;;;;;12.88;5.03;;;;;;;4.85;54.50;99873.22;5092566;28;20090;-46
2022/02/12 01:18:40;;;;;;;9.48;4.18;;;;;;;4.62;54.74;99875.25;5092542;28;20024;-48
2022/02/12 01:21:06;;;;;;;10.25;3.65;;;;;;;4.53;55.16;99874.25;5091174;28;20490;-48
2022/02/12 01:23:31;;;;;;;8.98;3.42;;;;;;;4.49;55.87;99878.09;5092547;28;20024;-48
2022/02/12 01:25:57;;;;;;;7.60;3.35;;;;;;;4.51;55.81;99878.78;5091093;28;20030;-48
2022/02/12 01:28:23;;;;;;;10.85;4.03;;;;;;;4.60;56.09;99886.56;5091083;28;20024;-47
2022/02/12 01:30:49;;;;;;;7.03;3.40;;;;;;;4.78;55.59;99878.97;5090976;28;20471;-48
2022/02/12 01:33:15;;;;;;;9.30;3.90;;;;;;;4.94;55.27;99875.03;5092231;28;20076;-47
2022/02/12 01:35:42;;;;;;;9.20;3.53;;;;;;;5.02;55.14;99863.97;5092117;28;20138;-48
2022/02/12 01:38:07;;;;;;;6.72;3.88;;;;;;;5.06;54.73;99886.16;5092190;28;20032;-48
2022/02/12 01:40:33;;;;;;;8.90;3.85;;;;;;;5.09;55.00;99883.25;5090837;28;20031;-48
2022/02/12 01:43:07;;;;;;;8.45;3.95;;;;;;;5.19;54.60;99887.53;5090850;28;20173;-48
2022/02/12 01:45:33;;;;;;;17.42;3.60;;;;;;;5.24;54.79;99884.53;5090856;28;20032;-47
2022/02/12 01:47:59;;;;;;;12.00;3.75;;;;;;;5.19;54.32;99879.72;5092080;28;20051;-47
2022/02/12 01:50:25;;;;;;;6.45;3.35;;;;;;;5.08;54.24;99877.25;5092077;28;20146;-47
2022/02/12 01:52:52;;;;;;;11.70;3.40;;;;;;;5.00;54.35;99884.91;5091963;28;20107;-49
2022/02/12 01:55:18;;;;;;;8.88;3.70;;;;;;;4.89;54.53;99887.59;5091981;28;20106;-49
2022/02/12 01:57:44;;;;;;;10.63;3.55;;;;;;;4.87;55.01;99889.53;5091951;28;20023;-49
2022/02/12 02:00:13;;;;;;;6.40;3.05;;;;;;;4.97;55.15;99880.78;5091909;28;20016;-48
2022/02/12 02:02:39;;;;;;;8.63;4.68;;;;;;;5.00;54.25;99875.31;5091925;28;20048;-48
2022/02/12 02:05:11;;;;;;;10.55;5.88;;;;;;;4.69;54.31;99886.75;5090566;28;20102;-49
2022/02/12 02:07:38;;;;;;;9.93;4.72;;;;;;;4.10;55.04;99880.50;5091960;28;20081;-47
2022/02/12 02:10:05;;;;;;;11.70;4.50;;;;;;;3.84;56.46;99883.50;5091819;28;20100;-48
2022/02/12 02:12:30;;;;;;;12.60;6.40;;;;;;;3.62;56.94;99883.63;5091826;28;20066;-48
2022/02/12 02:14:56;;;;;;;10.77;5.20;;;;;;;3.49;57.39;99884.63;5093428;28;20021;-49
2022/02/12 02:17:22;;;;;;;12.35;6.25;;;;;;;3.34;57.54;99875.47;5095993;28;20081;-49
2022/02/12 02:19:48;;;;;;;10.27;4.80;;;;;;;2.91;59.38;99881.53;5096289;28;20106;-47
2022/02/12 02:22:16;;;;;;;9.82;5.78;;;;;;;2.48;60.30;99877.94;5096207;28;20402;-48
2022/02/12 02:24:42;;;;;;;10.10;6.28;;;;;;;2.24;60.76;99874.66;5095856;28;20035;-45
2022/02/12 02:27:15;;;;;;;10.95;6.20;;;;;;;2.04;61.27;99868.41;5095840;28;20509;-45
2022/02/12 02:29:44;;;;;;;14.93;8.68;;;;;;;1.91;61.26;99869.31;5095789;28;20016;-48
2022/02/12 02:32:11;;;;;;;9.25;4.78;;;;;;;1.83;61.62;99860.47;5095751;28;20039;-48
2022/02/12 02:34:46;;;;;;;10.85;5.40;;;;;;;1.71;62.16;99852.69;5094941;28;20044;-47
2022/02/12 02:37:11;;;;;;;8.60;4.50;;;;;;;1.91;62.61;99853.78;5094281;28;20034;-49
2022/02/12 02:39:37;;;;;;;13.93;5.43;;;;;;;2.17;62.04;99841.44;5094293;28;20099;-48
2022/02/12 02:42:03;;;;;;;11.23;4.10;;;;;;;2.56;62.12;99843.66;5094261;28;20092;-46
2022/02/12 02:44:29;;;;;;;13.25;4.55;;;;;;;3.04;61.46;99830.34;5094185;28;20031;-48
2022/02/12 02:46:55;;;;;;;12.63;5.25;;;;;;;3.40;60.57;99834.31;5094218;28;20390;-47
2022/02/12 02:49:21;;;;;;;9.20;5.28;;;;;;;3.39;59.32;99829.25;5094187;28;20035;-47
2022/02/12 02:57:14;;;;;;;10.05;4.70;;;;;;;2.79;59.58;99837.47;5094041;28;20043;-47
2022/02/12 02:59:40;;;;;;;10.93;4.68;;;;;;;2.73;60.17;99837.13;5093975;28;20481;-48
2022/02/12 03:02:06;;;;;;;11.00;4.65;;;;;;;2.81;60.62;99834.75;5094227;28;20028;-48
2022/02/12 03:04:32;;;;;;;11.05;4.75;;;;;;;3.03;60.38;99835.66;5093898;28;20455;-48
2022/02/12 03:06:58;;;;;;;10.43;4.50;;;;;;;3.07;59.65;99827.47;5092522;28;20056;-47
2022/02/12 03:09:23;;;;;;;14.25;4.88;;;;;;;3.00;59.53;99829.75;5093789;28;20024;-47
2022/02/12 03:11:52;;;;;;;10.88;4.97;;;;;;;2.75;59.63;99830.88;5092415;28;20050;-47
2022/02/12 03:14:18;;;;;;;11.13;6.28;;;;;;;2.47;61.06;99827.03;5093776;28;20032;-46
2022/02/12 03:16:43;;;;;;;10.00;4.57;;;;;;;2.25;61.21;99835.66;5092434;28;20508;-48
2022/02/12 03:19:09;;;;;;;10.65;6.10;;;;;;;2.17;62.01;99833.69;5092388;28;20508;-47
2022/02/12 03:21:35;;;;;;;11.65;6.18;;;;;;;2.11;62.35;99828.13;5093645;28;20043;-48
2022/02/12 03:24:00;;;;;;;11.48;5.75;;;;;;;2.10;62.31;99818.72;5092272;28;20031;-47
2022/02/12 03:26:26;;;;;;;9.70;5.35;;;;;;;2.10;62.23;99816.16;5093257;28;20146;-47
2022/02/12 03:28:52;;;;;;;11.00;5.30;;;;;;;2.11;62.34;99817.78;5093476;28;20098;-45
2022/02/12 03:31:17;;;;;;;14.38;5.22;;;;;;;2.05;62.55;99815.66;5093386;28;20093;-50
2022/02/12 03:33:45;;;;;;;8.30;5.12;;;;;;;1.98;62.16;99810.94;5086116;28;1495292;-54
2022/02/12 03:36:11;;;;;;;11.15;5.50;;;;;;;2.02;62.69;99810.72;5094437;28;20063;-46
2022/02/12 03:38:39;;;;;;;9.15;5.78;;;;;;;2.14;62.07;99820.97;5094547;28;20063;-47
2022/02/12 03:41:06;;;;;;;11.75;5.82;;;;;;;2.15;61.91;99821.78;5094401;28;20028;-46
2022/02/12 03:43:35;;;;;;;10.38;5.00;;;;;;;2.14;62.61;99815.78;5094412;28;20020;-48
2022/02/12 03:46:04;;;;;;;9.95;6.10;;;;;;;2.19;62.65;99810.22;5094326;28;20020;-47
2022/02/12 03:48:29;;;;;;;11.52;5.47;;;;;;;2.19;62.12;99807.66;5093067;28;20025;-48
2022/02/12 03:50:56;;;;;;;10.98;5.50;;;;;;;2.00;61.55;99814.25;5094290;28;20038;-48
2022/02/12 03:53:22;;;;;;;11.50;5.38;;;;;;;1.87;62.37;99823.91;5094447;28;20016;-47
2022/02/12 03:55:49;;;;;;;10.93;5.88;;;;;;;1.79;62.35;99826.22;5094104;28;20397;-48
2022/02/12 03:58:17;;;;;;;8.27;5.40;;;;;;;1.78;62.61;99824.59;5094146;28;20016;-47
2022/02/12 04:00:45;;;;;;;9.20;5.68;;;;;;;1.71;63.54;99824.22;5094060;28;20530;-48
2022/02/12 04:03:12;;;;;;;8.10;5.30;;;;;;;1.65;63.13;99834.19;5094048;28;20027;-46
2022/02/12 04:05:38;;;;;;;11.38;5.15;;;;;;;1.61;63.25;99836.22;5093994;28;20393;-47
2022/02/12 04:08:05;;;;;;;10.55;5.93;;;;;;;1.44;64.03;99827.09;5093932;28;20024;-47
2022/02/12 04:10:30;;;;;;;12.20;6.53;;;;;;;1.39;64.45;99835.22;5093913;28;20553;-45
2022/02/12 04:12:58;;;;;;;7.80;5.80;;;;;;;1.46;64.19;99832.97;5093769;28;20021;-46
2022/02/12 04:15:27;;;;;;;13.57;5.75;;;;;;;1.39;63.71;99831.81;5093832;28;20051;-48
2022/02/12 04:17:53;;;;;;;9.98;5.85;;;;;;;1.39;64.19;99827.44;5093739;28;20020;-46
2022/02/12 04:20:22;;;;;;;8.95;4.57;;;;;;;1.67;63.99;99833.16;5093671;28;20545;-46
2022/02/12 04:22:48;;;;;;;12.90;5.63;;;;;;;1.65;64.06;99834.19;5093602;28;20034;-47
2022/02/12 04:25:19;;;;;;;8.40;5.97;;;;;;;1.51;63.91;99833.47;5093608;28;20031;-47
2022/02/12 04:27:45;;;;;;;10.35;6.05;;;;;;;1.38;64.09;99823.19;5092279;28;20024;-47
2022/02/12 04:30:12;;;;;;;14.27;6.15;;;;;;;1.30;63.95;99825.53;5093458;28;20024;-48
2022/02/12 04:32:39;;;;;;;11.57;6.32;;;;;;;1.29;64.50;99821.31;5093355;28;20026;-48
2022/02/12 04:35:05;;;;;;;14.05;6.53;;;;;;;1.22;64.15;99816.69;5093132;28;20036;-48
2022/02/12 04:37:32;;;;;;;10.65;5.40;;;;;;;1.19;64.22;99817.75;5092664;28;20041;-47
2022/02/12 04:39:58;;;;;;;10.48;5.47;;;;;;;1.30;64.19;99822.13;5093240;28;20032;-46
2022/02/12 04:42:24;;;;;;;11.40;5.93;;;;;;;1.36;64.74;99814.72;5091863;28;20036;-47
2022/02/12 04:44:52;;;;;;;9.27;5.30;;;;;;;1.47;63.98;99820.88;5093244;28;20447;-48
2022/02/12 04:47:20;;;;;;;28.92;20.75;;;;;;;1.43;63.58;99824.63;5093121;28;20040;-46
2022/02/12 04:49:47;;;;;;;11.60;6.25;;;;;;;1.38;64.47;99818.03;5093155;28;20095;-46
2022/02/12 04:52:15;;;;;;;11.43;5.22;;;;;;;1.44;64.61;99810.75;5093072;28;20032;-48
2022/02/12 04:54:41;;;;;;;11.18;5.35;;;;;;;1.57;64.50;99807.16;5092906;28;20456;-47
2022/02/12 04:57:07;;;;;;;7.97;5.38;;;;;;;1.62;63.69;99804.22;5093013;28;20493;-46
2022/02/12 04:59:34;;;;;;;13.52;5.93;;;;;;;1.58;63.86;99806.19;5092969;28;20020;-47
2022/02/12 05:01:59;;;;;;;12.27;5.88;;;;;;;1.43;63.91;99807.38;5092859;28;20032;-47
2022/02/12 05:04:25;;;;;;;10.20;5.95;;;;;;;1.31;63.80;99811.69;5091556;28;20512;-48
2022/02/12 05:06:51;;;;;;;10.77;5.18;;;;;;;1.28;64.11;99809.31;5092765;28;20415;-48
2022/02/12 05:09:18;;;;;;;9.38;5.47;;;;;;;1.20;64.75;99803.88;5092742;28;20032;-46
2022/02/12 05:11:48;;;;;;;14.30;6.20;;;;;;;1.30;65.15;99801.44;5092731;28;20032;-48
2022/02/12 05:14:15;;;;;;;12.27;7.10;;;;;;;1.30;64.48;99806.59;5092632;28;20016;-46
2022/02/12 05:16:41;;;;;;;12.95;6.53;;;;;;;1.21;63.69;99810.72;5092828;28;20028;-48
2022/02/12 05:19:07;;;;;;;11.50;5.93;;;;;;;1.09;64.05;99804.66;5092606;28;20023;-47
2022/02/12 05:21:33;;;;;;;11.45;5.95;;;;;;;0.98;63.93;99802.03;5092503;28;20024;-48
2022/02/12 05:23:59;;;;;;;12.15;6.35;;;;;;;0.83;65.08;99801.38;5092441;28;20413;-48
2022/02/12 05:26:27;;;;;;;13.00;6.70;;;;;;;0.72;65.33;99806.47;5091121;28;20039;-46
2022/02/12 05:28:53;;;;;;;13.25;6.50;;;;;;;0.62;65.61;99800.31;5092390;28;20028;-48
2022/02/12 05:31:20;;;;;;;16.17;7.20;;;;;;;0.44;66.79;99807.63;5092348;28;20032;-46
2022/02/12 05:33:46;;;;;;;12.25;6.22;;;;;;;0.38;66.35;99807.13;5091993;28;20023;-46
2022/02/12 05:36:12;;;;;;;11.07;6.28;;;;;;;0.36;66.71;99802.97;5090937;28;20506;-47
2022/02/12 05:38:40;;;;;;;10.07;5.82;;;;;;;0.46;66.89;99798.81;5092254;28;20028;-47
2022/02/12 05:41:10;;;;;;;10.75;6.18;;;;;;;0.58;66.24;99808.31;5092222;28;20020;-47
2022/02/12 05:43:37;;;;;;;14.98;5.32;;;;;;;0.70;66.10;99809.16;5090891;28;20127;-47
2022/02/12 05:46:04;;;;;;;10.57;6.18;;;;;;;0.79;66.27;99802.53;5092144;28;20023;-48
2022/02/12 05:48:30;;;;;;;16.10;6.00;;;;;;;0.68;66.14;99803.28;5092144;28;20047;-48
2022/02/12 05:50:56;;;;;;;14.65;6.85;;;;;;;0.76;66.23;99795.00;5092037;28;20016;-47
2022/02/12 05:53:22;;;;;;;11.18;5.75;;;;;;;0.75;66.28;99795.94;5090702;28;20035;-46
2022/02/12 05:55:48;;;;;;;13.60;5.53;;;;;;;0.79;65.66;99798.19;5092022;28;20501;-47
2022/02/12 05:58:14;;;;;;;11.48;6.63;;;;;;;0.90;65.34;99804.34;5091975;28;20027;-47
2022/02/12 06:00:40;;;;;;;13.20;5.97;;;;;;;0.92;65.15;99800.69;5091977;28;20020;-47
2022/02/12 06:03:05;;;;;;;12.15;6.43;;;;;;;0.95;65.14;99803.09;5091899;28;20097;-46
2022/02/12 06:05:31;;;;;;;13.35;6.72;;;;;;;0.86;65.44;99800.34;5091882;28;20048;-47
2022/02/12 06:07:59;;;;;;;25.40;14.40;;;;;;;0.85;65.09;99801.28;5091934;28;20034;-48
2022/02/12 06:10:28;;;;;;;10.30;6.65;;;;;;;0.87;65.25;99809.75;5091883;28;20024;-47
2022/02/12 06:12:54;;;;;;;15.48;7.68;;;;;;;0.94;64.63;99814.34;5091777;28;20456;-47
2022/02/12 06:15:21;;;;;;;10.48;5.82;;;;;;;0.91;64.90;99804.25;5091720;28;20024;-46
2022/02/12 06:17:47;;;;;;;13.57;6.35;;;;;;;0.82;64.45;99807.47;5091782;28;20367;-47
2022/02/12 06:20:13;;;;;;;10.25;6.53;;;;;;;0.73;65.19;99808.16;5091781;28;20027;-47
2022/02/12 06:22:39;;;;;;;12.00;6.38;;;;;;;0.85;65.33;99804.69;5090421;28;20081;-46
2022/02/12 06:25:06;;;;;;;14.80;6.07;;;;;;;0.91;64.64;99806.81;5091728;28;20055;-48
2022/02/12 06:27:31;;;;;;;9.07;5.97;;;;;;;0.84;64.97;99810.78;5091715;28;20024;-46
2022/02/12 06:29:57;;;;;;;9.88;5.90;;;;;;;0.97;65.33;99821.06;5090393;28;20031;-47
2022/02/12 06:32:23;;;;;;;13.55;6.65;;;;;;;1.03;64.68;99812.03;5090282;28;20478;-46
2022/02/12 06:34:58;;;;;;;13.65;7.20;;;;;;;0.93;65.11;99811.88;5090020;28;20058;-46
2022/02/12 06:37:24;;;;;;;11.57;6.10;;;;;;;0.95;64.50;99817.78;5091652;28;20109;-46
2022/02/12 06:39:50;;;;;;;14.02;6.88;;;;;;;0.93;64.27;99829.97;5091622;28;20553;-46
2022/02/12 06:42:16;;;;;;;11.30;7.95;;;;;;;0.91;64.64;99827.50;5091600;28;20111;-46
2022/02/12 06:44:42;;;;;;;14.68;7.93;;;;;;;0.95;64.57;99836.69;5091533;28;20043;-47
2022/02/12 06:47:08;;;;;;;12.50;7.43;;;;;;;0.97;64.40;99828.81;5091556;28;20796;-47
2022/02/12 06:49:35;;;;;;;10.23;6.53;;;;;;;0.98;63.89;99828.69;5090155;28;20390;-48
2022/02/12 06:52:02;;;;;;;11.70;7.15;;;;;;;0.97;64.52;99831.41;5091468;28;20024;-49
2022/02/12 06:54:27;;;;;;;12.40;7.38;;;;;;;0.99;64.62;99834.72;5091368;28;20088;-48
2022/02/12 06:56:53;;;;;;;10.20;6.95;;;;;;;1.00;64.01;99844.91;5090099;28;20020;-45
2022/02/12 06:59:19;;;;;;;13.60;5.93;;;;;;;1.13;64.14;99844.06;5090086;28;20024;-47
2022/02/12 07:01:45;;;;;;;11.98;7.32;;;;;;;1.51;63.73;99830.06;5094103;28;20482;-48
2022/02/12 07:04:10;;;;;;;10.55;6.03;;;;;;;1.97;62.55;99836.94;5093906;28;20028;-46
2022/02/12 07:06:36;;;;;;;13.27;7.05;;;;;;;2.25;61.35;99842.63;5095092;28;20020;-49
2022/02/12 07:09:04;;;;;;;21.38;7.90;;;;;;;2.40;61.08;99842.25;5093744;28;20055;-48
2022/02/12 07:11:31;;;;;;;13.95;8.10;;;;;;;2.62;60.10;99839.75;5094999;28;20501;-47
2022/02/12 07:13:56;;;;;;;14.60;7.93;;;;;;;2.74;58.84;99841.38;5094930;28;20024;-48
2022/02/12 07:16:22;;;;;;;16.15;8.30;;;;;;;2.78;58.21;99838.44;5094903;28;20360;-47
2022/02/12 07:18:48;;;;;;;10.50;7.68;;;;;;;2.87;58.64;99849.81;5094907;28;20023;-47
2022/02/12 07:21:15;;;;;;;15.45;8.13;;;;;;;3.14;58.15;99852.00;5094881;28;20424;-47
2022/02/12 07:23:41;;;;;;;15.73;8.23;;;;;;;3.51;57.13;99858.56;5094798;28;20032;-48
2022/02/12 07:26:08;;;;;;;13.70;6.88;;;;;;;3.68;56.63;99859.75;5094793;28;20115;-49
2022/02/12 07:28:33;;;;;;;12.98;8.00;;;;;;;3.63;55.49;99860.13;5093438;28;20071;-47
2022/02/12 07:30:59;;;;;;;10.55;7.10;;;;;;;3.20;56.45;99858.47;5094641;28;20044;-49
2022/02/12 07:33:26;;;;;;;13.80;8.95;;;;;;;3.33;56.91;99872.06;5093258;28;20050;-48
2022/02/12 07:35:53;;;;;;;10.05;7.60;;;;;;;3.77;56.51;99871.97;5094383;28;20040;-48
2022/02/12 07:38:20;;;;;;;14.88;9.15;;;;;;;4.36;55.21;99860.91;5093061;28;20034;-48
2022/02/12 07:40:46;;;;;;;13.15;8.20;;;;;;;4.65;53.59;99860.19;5093140;28;20024;-47
2022/02/12 07:43:12;;;;;;;14.05;7.38;;;;;;;4.90;54.13;99860.66;5093239;28;20116;-47
2022/02/12 07:45:38;;;;;;;9.52;6.65;;;;;;;5.85;53.50;99862.53;5094415;28;20580;-48
2022/02/12 07:48:04;;;;;;;14.75;8.57;;;;;;;6.36;52.06;99869.13;5093045;28;20020;-48
2022/02/12 07:50:29;;;;;;;10.25;7.07;;;;;;;6.11;50.69;99865.38;5092986;28;20028;-47
2022/02/12 07:52:55;;;;;;;9.93;7.03;;;;;;;5.45;51.37;99866.16;5092878;28;20024;-48
2022/02/12 07:55:21;;;;;;;12.85;8.30;;;;;;;5.29;52.22;99863.28;5076074;28;20123;-47
2022/02/12 07:57:47;;;;;;;12.68;7.20;;;;;;;5.82;51.80;99869.81;5092887;28;20042;-48
2022/02/12 08:00:14;;;;;;;13.25;8.40;;;;;;;6.19;51.42;99868.09;5109751;28;20127;-48
2022/02/12 08:02:41;;;;;;;13.68;7.13;;;;;;;6.54;51.17;99871.81;5092764;28;20513;-47
2022/02/12 08:05:07;;;;;;;12.52;7.68;;;;;;;7.26;50.15;99871.06;5094015;28;20115;-47
2022/02/12 08:07:37;;;;;;;11.70;7.70;;;;;;;8.05;48.10;99864.97;5092709;28;20024;-49
2022/02/12 08:12:54;;;;;;;14.23;7.78;;;;;;;8.44;46.20;99871.56;5092786;28;20116;-49
2022/02/12 08:15:20;;;;;;;13.05;8.07;;;;;;;7.95;47.26;99869.47;5092551;28;20121;-47
2022/02/12 08:17:45;;;;;;;10.50;7.70;;;;;;;7.56;47.35;99867.22;5093797;28;20521;-48
2022/02/12 08:20:11;;;;;;;15.15;7.28;;;;;;;7.14;47.68;99873.91;5092438;28;20024;-47
2022/02/12 08:22:37;;;;;;;15.70;8.48;;;;;;;6.78;48.09;99873.03;5093694;28;20024;-47
2022/02/12 08:25:04;;;;;;;14.90;9.25;;;;;;;7.15;48.77;99880.75;5092440;28;20508;-49
2022/02/12 08:27:30;;;;;;;12.70;7.88;;;;;;;7.82;48.28;99876.91;5092256;28;20028;-48
2022/02/12 08:29:56;;;;;;;11.18;7.50;;;;;;;8.36;46.95;99870.50;5093515;28;20024;-49
2022/02/12 08:32:27;;;;;;;17.20;11.02;;;;;;;8.84;45.78;99880.53;5092140;28;20398;-48
2022/02/12 08:34:54;;;;;;;12.30;7.35;;;;;;;9.43;45.20;99869.97;5093200;28;20501;-49
2022/02/12 08:37:21;;;;;;;13.65;7.45;;;;;;;10.22;44.05;99871.00;5093385;28;20077;-49
2022/02/12 08:39:50;;;;;;;17.38;8.93;;;;;;;10.89;42.54;99865.34;5093301;28;20023;-48
2022/02/12 08:42:20;;;;;;;15.43;7.93;;;;;;;11.03;41.33;99868.22;5093262;28;20035;-50
2022/02/12 08:44:49;;;;;;;12.40;9.07;;;;;;;11.00;41.61;99856.25;5093315;28;20394;-48
2022/02/12 08:47:16;;;;;;;10.52;6.78;;;;;;;10.67;40.46;99860.88;5091864;28;20123;-49
2022/02/12 08:49:42;;;;;;;14.68;10.95;;;;;;;9.65;41.90;99866.69;5093189;28;20020;-48
2022/02/12 08:52:08;;;;;;;11.20;7.00;;;;;;;9.35;43.51;99863.75;5093068;28;20531;-49
2022/02/12 08:54:34;;;;;;;14.07;7.22;;;;;;;9.16;43.72;99870.13;5091639;28;20115;-49
2022/02/12 08:57:01;;;;;;;38.22;29.50;;;;;;;9.86;44.16;99871.44;5093035;28;20027;-49
2022/02/12 08:59:29;;;;;;;20.55;14.60;;;;;;;10.86;42.58;99867.50;5092971;28;20020;-48
2022/02/12 09:01:56;;;;;;;203.82;184.07;;;;;;;11.98;41.66;99859.91;5092879;28;20085;-48
2022/02/12 09:04:22;;;;;;;171.18;153.25;;;;;;;13.34;39.08;99855.03;5091540;28;20032;-48
2022/02/12 09:06:48;;;;;;;23.88;18.33;;;;;;;14.22;37.48;99857.28;5091516;28;20398;-50
2022/02/12 09:09:14;;;;;;;12.43;7.90;;;;;;;15.13;35.93;99854.38;5091487;28;20121;-50
2022/02/12 09:11:42;;;;;;;16.15;7.43;;;;;;;15.81;35.04;99848.94;5092698;28;20545;-50
2022/02/12 09:14:10;;;;;;;12.20;6.85;;;;;;;16.51;33.80;99856.28;5091311;28;20383;-50
2022/02/12 09:16:37;;;;;;;9.38;6.28;;;;;;;17.41;31.57;99853.56;5091289;28;20509;-49
2022/02/12 09:19:04;;;;;;;25.05;16.73;;;;;;;17.96;30.82;99858.19;5092613;28;20023;-49
2022/02/12 09:21:30;;;;;;;15.35;12.13;;;;;;;18.70;29.73;99847.53;5091214;28;20020;-50
2022/02/12 09:23:56;;;;;;;27.75;24.90;;;;;;;19.27;29.20;99847.97;5090978;28;20020;-50
2022/02/12 09:26:28;;;;;;;49.97;44.88;;;;;;;19.81;28.00;99847.13;5091132;28;20028;-50
2022/02/12 09:28:54;;;;;;;125.45;113.72;;;;;;;20.24;27.20;99840.56;5092496;28;20016;-50
2022/02/12 09:31:20;;;;;;;15.93;11.13;;;;;;;20.58;25.82;99838.84;5091070;28;20043;-50
2022/02/12 09:33:45;;;;;;;12.45;7.75;;;;;;;20.58;26.25;99828.19;5090763;28;20104;-49
2022/02/12 09:36:11;;;;;;;10.52;5.55;;;;;;;20.43;26.42;99836.69;5090986;28;20024;-50
2022/02/12 09:38:37;;;;;;;11.15;9.20;;;;;;;20.58;26.00;99830.84;5090985;28;20031;-50
2022/02/12 09:41:02;;;;;;;9.40;6.35;;;;;;;20.75;25.37;99831.75;5090960;28;20043;-51
2022/02/12 09:43:29;;;;;;;10.48;5.97;;;;;;;20.38;24.96;99825.13;5092208;28;20036;-50
2022/02/12 09:46:04;;;;;;;9.48;6.00;;;;;;;19.85;25.32;99826.97;5092234;28;20030;-49
2022/02/12 09:48:34;;;;;;;14.60;6.80;;;;;;;19.28;26.10;99830.16;5090855;28;20497;-49
2022/02/12 09:51:01;;;;;;;9.45;6.38;;;;;;;19.42;26.53;99828.91;5092067;28;20505;-50
2022/02/12 09:53:29;;;;;;;12.02;7.40;;;;;;;20.04;25.54;99823.13;5091919;28;20119;-50
2022/02/12 09:55:56;;;;;;;12.18;6.28;;;;;;;20.77;25.13;99818.16;5092045;28;20030;-50
2022/02/12 09:58:23;;;;;;;12.13;6.45;;;;;;;21.08;24.38;99822.16;5092032;28;20505;-51
2022/02/12 10:00:49;;;;;;;10.57;6.35;;;;;;;20.82;24.70;99820.09;5091996;28;20043;-50
2022/02/12 10:03:15;;;;;;;12.68;7.10;;;;;;;21.01;24.75;99820.72;5090621;28;20036;-50
2022/02/12 10:05:53;;;;;;;9.40;6.57;;;;;;;21.30;24.36;99819.56;5091957;28;20020;-51
2022/02/12 10:08:21;;;;;;;8.40;6.45;;;;;;;20.81;24.27;99813.97;5091874;28;20034;-50
2022/02/12 10:10:49;;;;;;;11.98;6.50;;;;;;;21.40;24.50;99810.91;5090561;28;20501;-50
2022/02/12 10:13:30;;;;;;;8.20;6.53;;;;;;;22.22;23.90;99811.28;5091779;28;20020;-51
2022/02/12 10:15:58;;;;;;;8.32;6.15;;;;;;;22.26;23.36;99817.75;5091934;28;20024;-51
2022/02/12 10:18:29;;;;;;;9.18;6.10;;;;;;;21.96;23.09;99813.63;5091792;28;20444;-50
2022/02/12 10:20:56;;;;;;;13.85;6.55;;;;;;;21.85;23.68;99814.53;5090530;28;20054;-50
2022/02/12 10:23:27;;;;;;;9.73;6.25;;;;;;;21.98;23.50;99803.47;5107399;28;20038;-51
2022/02/12 10:26:02;;;;;;;12.23;6.68;;;;;;;21.67;23.64;99804.94;5091766;28;20039;-49
2022/02/12 10:28:30;;;;;;;12.25;6.55;;;;;;;21.48;23.59;99805.19;5090421;28;20086;-50
2022/02/12 10:30:57;;;;;;;8.40;5.93;;;;;;;21.44;23.72;99800.59;5090329;28;20513;-51
2022/02/12 10:33:25;;;;;;;9.18;5.95;;;;;;;21.44;23.90;99787.25;5090250;28;20024;-51
2022/02/12 10:35:59;;;;;;;11.43;7.10;;;;;;;21.49;23.84;99793.47;5092845;28;20044;-51
2022/02/12 10:38:27;;;;;;;13.20;6.35;;;;;;;21.56;23.77;99790.63;5094375;28;20024;-50
2022/02/12 10:41:11;;;;;;;7.88;5.95;;;;;;;21.58;24.13;99801.88;5094314;28;20062;-50
2022/02/12 10:43:39;;;;;;;11.95;5.95;;;;;;;21.49;23.61;99796.16;5094409;28;20078;-51
2022/02/12 10:46:06;;;;;;;9.15;5.97;;;;;;;21.38;24.10;99796.19;5095541;28;20058;-51
2022/02/12 10:48:38;;;;;;;8.02;5.75;;;;;;;21.07;24.25;99796.53;5094195;28;20020;-49
2022/02/12 10:51:14;;;;;;;8.95;6.22;;;;;;;20.91;24.82;99800.00;5094180;28;20028;-50
2022/02/12 10:54:07;;;;;;;10.57;6.00;;;;;;;20.71;25.09;99795.91;5095392;28;20433;-51
2022/02/12 10:56:52;;;;;;;8.65;6.07;;;;;;;20.17;25.66;99790.06;5095421;28;20115;-49
2022/02/12 10:59:22;;;;;;;7.70;5.72;;;;;;;19.67;26.24;99791.38;5094048;28;20032;-51
2022/02/12 11:01:49;;;;;;;9.30;6.00;;;;;;;19.01;26.88;99797.81;5095221;28;20031;-49
2022/02/12 11:04:16;;;;;;;9.93;6.05;;;;;;;18.59;27.78;99798.56;5093939;28;20025;-49
2022/02/12 11:06:48;;;;;;;7.20;5.68;;;;;;;18.29;28.12;99798.56;5093837;28;20020;-50
2022/02/12 11:09:15;;;;;;;9.23;5.80;;;;;;;18.40;28.40;99787.19;5093781;28;20516;-49
2022/02/12 11:11:41;;;;;;;11.43;6.78;;;;;;;18.43;28.19;99778.78;5095069;28;20020;-51
2022/02/12 11:14:08;;;;;;;9.07;6.03;;;;;;;18.51;28.33;99770.47;5095009;28;20031;-51
2022/02/12 11:16:36;;;;;;;11.77;6.35;;;;;;;18.70;28.17;99773.09;5093659;28;20516;-49
2022/02/12 11:19:04;;;;;;;11.70;7.63;;;;;;;19.36;27.75;99764.06;5094982;28;20016;-51
2022/02/12 11:21:33;;;;;;;9.77;6.55;;;;;;;19.86;27.42;99764.63;5093566;28;20028;-50
2022/02/12 11:24:01;;;;;;;13.98;8.75;;;;;;;20.09;26.70;99759.25;5094795;28;20097;-50
2022/02/12 11:26:27;;;;;;;10.15;6.40;;;;;;;20.17;26.96;99751.94;5094787;28;20024;-50
2022/02/12 11:28:54;;;;;;;8.93;6.22;;;;;;;20.66;26.56;99752.31;5094825;28;20013;-52
2022/02/12 11:31:24;;;;;;;8.25;5.80;;;;;;;21.01;25.97;99746.78;5093379;28;20020;-51
2022/02/12 11:34:14;;;;;;;10.32;5.88;;;;;;;21.24;25.97;99739.66;5093069;28;20022;-52
2022/02/12 11:36:46;;;;;;;10.55;6.38;;;;;;;21.64;25.20;99735.97;5093319;28;20028;-51
2022/02/12 11:39:15;;;;;;;8.35;6.07;;;;;;;22.01;24.74;99727.31;5094539;28;20490;-50
2022/02/12 11:41:43;;;;;;;10.75;6.28;;;;;;;22.07;24.34;99723.66;5094527;28;20020;-52